Time;durP1;ratioP1;P1;durP2;ratioP2;P2;SDS_P1;SDS_P2;PMS_P1;PMS_P2;Temp;Humidity;BMP_temperature;BMP_pressure;BME280_temperature;BME280_humidity;BME280_pressure;Samples;Min_cycle;Max_cycle;Signal;HPM_P1;HPM_P2
2023/05/12 00:03:45;;;;;;;;;;;;;;;;;;10244231;28;1910;-71
2023/05/12 00:08:41;;;;;;;;;;;;;;;;;;10243816;28;884;-72
2023/05/12 00:13:36;;;;;;;;;;;;;;;;;;10243533;28;955;-72
2023/05/12 00:18:32;;;;;;;;;;;;;;;;;;10243746;28;816;-70
2023/05/12 00:23:28;;;;;;;;;;;;;;;;;;10243575;28;1890;-72
2023/05/12 00:28:24;;;;;;;;;;;;;;;;;;10243522;28;869;-72
2023/05/12 00:33:20;;;;;;;;;;;;;;;;;;10242838;28;918;-71
2023/05/12 00:38:16;;;;;;;;;;;;;;;;;;10243782;28;912;-72
2023/05/12 00:43:11;;;;;;;;;;;;;;;;;;10250814;28;1895;-72
2023/05/12 00:48:07;;;;;;;;;;;;;;;;;;10251376;28;968;-72
2023/05/12 00:53:03;;;;;;;;;;;;;;;;;;10250496;28;833;-71
2023/05/12 00:57:59;;;;;;;;;;;;;;;;;;10251754;28;1385;-71
2023/05/12 01:02:58;;;;;;;;;;;;;;;;;;10250162;28;1906;-72
2023/05/12 01:07:54;;;;;;;;;;;;;;;;;;10250624;28;804;-72
2023/05/12 01:12:50;;;;;;;;;;;;;;;;;;10249866;28;822;-72
2023/05/12 01:17:46;;;;;;;;;;;;;;;;;;10250261;28;858;-72
2023/05/12 01:22:42;;;;;;;;;;;;;;;;;;10250218;28;1937;-72
2023/05/12 01:27:38;;;;;;;;;;;;;;;;;;10249904;28;893;-72
2023/05/12 01:32:34;;;;;;;;;;;;;;;;;;10249100;28;881;-72
2023/05/12 01:37:30;;;;;;;;;;;;;;;;;;10248822;28;988;-72
2023/05/12 01:42:26;;;;;;;;;;;;;;;;;;10248826;28;1978;-72
2023/05/12 01:47:22;;;;;;;;;;;;;;;;;;10248789;28;798;-72
2023/05/12 01:52:19;;;;;;;;;;;;;;;;;;10248496;28;821;-72
2023/05/12 01:57:15;;;;;;;;;;;;;;;;;;10248716;28;1123;-72
2023/05/12 02:02:11;;;;;;;;;;;;;;;;;;10247946;28;1906;-72
2023/05/12 02:07:07;;;;;;;;;;;;;;;;;;10248134;28;890;-72
2023/05/12 02:12:03;;;;;;;;;;;;;;;;;;10248208;28;872;-72
2023/05/12 02:16:59;;;;;;;;;;;;;;;;;;10248091;28;873;-72
2023/05/12 02:21:55;;;;;;;;;;;;;;;;;;10247540;28;1942;-72
2023/05/12 02:26:51;;;;;;;;;;;;;;;;;;10247046;28;938;-72
2023/05/12 02:31:46;;;;;;;;;;;;;;;;;;10247491;28;793;-72
2023/05/12 02:36:42;;;;;;;;;;;;;;;;;;10246686;28;765;-72
2023/05/12 02:41:38;;;;;;;;;;;;;;;;;;10246397;28;1886;-72
2023/05/12 02:46:34;;;;;;;;;;;;;;;;;;10246240;28;953;-72
2023/05/12 02:51:30;;;;;;;;;;;;;;;;;;10247519;28;856;-72
2023/05/12 02:56:26;;;;;;;;;;;;;;;;;;10246038;28;1388;-72
2023/05/12 03:01:22;;;;;;;;;;;;;;;;;;10244891;28;1981;-72
2023/05/12 03:06:18;;;;;;;;;;;;;;;;;;10245487;28;875;-72
2023/05/12 03:11:14;;;;;;;;;;;;;;;;;;10245338;28;916;-72
2023/05/12 03:16:10;;;;;;;;;;;;;;;;;;10245155;28;841;-72
2023/05/12 03:21:06;;;;;;;;;;;;;;;;;;10244972;28;1948;-72
2023/05/12 03:26:02;;;;;;;;;;;;;;;;;;10245261;28;947;-72
2023/05/12 03:30:57;;;;;;;;;;;;;;;;;;10244868;28;821;-72
2023/05/12 03:35:53;;;;;;;;;;;;;;;;;;10244541;28;1033;-72
2023/05/12 03:40:53;;;;;;;;;;;;;;;;;;10244952;28;1958;-72
2023/05/12 03:45:48;;;;;;;;;;;;;;;;;;10244353;28;847;-72
2023/05/12 03:50:44;;;;;;;;;;;;;;;;;;10245189;28;867;-72
2023/05/12 03:55:40;;;;;;;;;;;;;;;;;;10243913;28;1153;-72
2023/05/12 04:00:36;;;;;;;;;;;;;;;;;;10244609;28;1902;-72
2023/05/12 04:05:32;;;;;;;;;;;;;;;;;;10245231;28;929;-72
2023/05/12 04:10:28;;;;;;;;;;;;;;;;;;10243857;28;861;-72
2023/05/12 04:15:24;;;;;;;;;;;;;;;;;;10249563;28;780;-72
2023/05/12 04:20:21;;;;;;;;;;;;;;;;;;10251220;28;1938;-71
2023/05/12 04:25:16;;;;;;;;;;;;;;;;;;10251687;28;1121;-72
2023/05/12 04:30:12;;;;;;;;;;;;;;;;;;10252735;28;915;-73
2023/05/12 04:35:08;;;;;;;;;;;;;;;;;;10251920;28;845;-72
2023/05/12 04:40:04;;;;;;;;;;;;;;;;;;10251054;28;1883;-72
2023/05/12 04:45:00;;;;;;;;;;;;;;;;;;10251582;28;944;-72
2023/05/12 04:49:56;;;;;;;;;;;;;;;;;;10250736;28;788;-72
2023/05/12 04:54:52;;;;;;;;;;;;;;;;;;10248908;28;1361;-72
2023/05/12 04:59:48;;;;;;;;;;;;;;;;;;10250310;28;1906;-72
2023/05/12 05:04:44;;;;;;;;;;;;;;;;;;10249864;28;746;-72
2023/05/12 05:09:40;;;;;;;;;;;;;;;;;;10249525;28;890;-72
2023/05/12 05:14:36;;;;;;;;;;;;;;;;;;10250349;28;837;-72
2023/05/12 05:19:31;;;;;;;;;;;;;;;;;;10249598;28;858;-72
2023/05/12 05:24:27;;;;;;;;;;;;;;;;;;10248485;28;1957;-72
2023/05/12 05:29:25;;;;;;;;;;;;;;;;;;10249237;28;783;-71
2023/05/12 05:34:21;;;;;;;;;;;;;;;;;;10249685;28;787;-72
2023/05/12 05:39:17;;;;;;;;;;;;;;;;;;10249482;28;837;-71
2023/05/12 05:44:12;;;;;;;;;;;;;;;;;;10248603;28;1894;-71
2023/05/12 05:49:08;;;;;;;;;;;;;;;;;;10248541;28;910;-72
2023/05/12 05:54:04;;;;;;;;;;;;;;;;;;10248273;28;1349;-72
2023/05/12 05:59:02;;;;;;;;;;;;;;;;;;10248402;28;817;-72
2023/05/12 06:03:57;;;;;;;;;;;;;;;;;;10247921;28;1970;-72
2023/05/12 06:08:54;;;;;;;;;;;;;;;;;;10247731;28;968;-71
2023/05/12 06:13:51;;;;;;;;;;;;;;;;;;10247098;28;863;-72
2023/05/12 06:18:47;;;;;;;;;;;;;;;;;;10247383;28;882;-72
2023/05/12 06:23:43;;;;;;;;;;;;;;;;;;10247183;28;1886;-72
2023/05/12 06:28:39;;;;;;;;;;;;;;;;;;10247671;28;806;-70
2023/05/12 06:33:35;;;;;;;;;;;;;;;;;;10247284;28;894;-69
2023/05/12 06:38:31;;;;;;;;;;;;;;;;;;10247050;28;864;-69
2023/05/12 06:43:26;;;;;;;;;;;;;;;;;;10246402;28;1894;-69
2023/05/12 06:48:23;;;;;;;;;;;;;;;;;;10246158;28;853;-70
2023/05/12 06:53:19;;;;;;;;;;;;;;;;;;10243533;28;1079;-68
2023/05/12 06:58:14;;;;;;;;;;;;;;;;;;10244862;28;1268;-69
2023/05/12 07:03:10;;;;;;;;;;;;;;;;;;10245578;28;1972;-69
2023/05/12 07:08:06;;;;;;;;;;;;;;;;;;10246032;28;881;-69
2023/05/12 07:13:02;;;;;;;;;;;;;;;;;;10244274;28;912;-69
2023/05/12 07:17:58;;;;;;;;;;;;;;;;;;10245732;28;924;-69
2023/05/12 07:22:55;;;;;;;;;;;;;;;;;;10243889;28;1894;-69
2023/05/12 07:27:51;;;;;;;;;;;;;;;;;;10244840;28;755;-70
2023/05/12 07:32:47;;;;;;;;;;;;;;;;;;10244220;28;987;-70
2023/05/12 07:37:43;;;;;;;;;;;;;;;;;;10245705;28;778;-70
2023/05/12 07:42:38;;;;;;;;;;;;;;;;;;10243891;28;1902;-70
2023/05/12 07:47:34;;;;;;;;;;;;;;;;;;10241213;28;1137;-71
2023/05/12 07:52:30;;;;;;;;;;;;;;;;;;10244300;28;825;-68
2023/05/12 07:57:26;;;;;;;;;;;;;;;;;;10244254;28;1363;-69
2023/05/12 08:02:22;;;;;;;;;;;;;;;;;;10243836;28;1998;-72
2023/05/12 08:07:18;;;;;;;;;;;;;;;;;;10244082;28;914;-70
2023/05/12 08:12:14;;;;;;;;;;;;;;;;;;10244048;28;763;-69
2023/05/12 08:17:10;;;;;;;;;;;;;;;;;;10244160;28;822;-68
2023/05/12 08:22:05;;;;;;;;;;;;;;;;;;10243544;28;1957;-70
2023/05/12 08:27:01;;;;;;;;;;;;;;;;;;10243662;28;930;-70
2023/05/12 08:31:57;;;;;;;;;;;;;;;;;;10244081;28;901;-70
2023/05/12 08:36:53;;;;;;;;;;;;;;;;;;10243355;28;909;-70
2023/05/12 08:41:49;;;;;;;;;;;;;;;;;;10243206;28;1958;-71
2023/05/12 08:46:45;;;;;;;;;;;;;;;;;;10243233;28;850;-70
2023/05/12 08:51:41;;;;;;;;;;;;;;;;;;10243093;28;874;-70
2023/05/12 08:56:37;;;;;;;;;;;;;;;;;;10243059;28;1416;-70
2023/05/12 09:01:33;;;;;;;;;;;;;;;;;;10246975;28;1918;-69
2023/05/12 09:06:28;;;;;;;;;;;;;;;;;;10249415;28;940;-69
2023/05/12 09:11:24;;;;;;;;;;;;;;;;;;10249249;28;877;-68
2023/05/12 09:16:20;;;;;;;;;;;;;;;;;;10249769;28;952;-68
2023/05/12 09:21:16;;;;;;;;;;;;;;;;;;10250066;28;1886;-69
2023/05/12 09:26:12;;;;;;;;;;;;;;;;;;10249244;28;972;-68
2023/05/12 09:31:08;;;;;;;;;;;;;;;;;;10249882;28;810;-69
2023/05/12 09:36:04;;;;;;;;;;;;;;;;;;10249741;28;876;-68
2023/05/12 09:40:59;;;;;;;;;;;;;;;;;;10248861;28;1949;-68
2023/05/12 09:45:55;;;;;;;;;;;;;;;;;;10249480;28;809;-68
2023/05/12 09:50:51;;;;;;;;;;;;;;;;;;10248527;28;841;-68
2023/05/12 09:55:47;;;;;;;;;;;;;;;;;;10248714;28;1282;-69
2023/05/12 10:00:43;;;;;;;;;;;;;;;;;;10248597;28;1914;-69
2023/05/12 10:05:39;;;;;;;;;;;;;;;;;;10247934;28;853;-69
2023/05/12 10:10:35;;;;;;;;;;;;;;;;;;10247994;28;858;-69
2023/05/12 10:15:31;;;;;;;;;;;;;;;;;;10248109;28;814;-71
2023/05/12 10:20:26;;;;;;;;;;;;;;;;;;10247234;28;1890;-69
2023/05/12 10:25:22;;;;;;;;;;;;;;;;;;10247185;28;884;-69
2023/05/12 10:30:18;;;;;;;;;;;;;;;;;;10246362;28;1205;-68
2023/05/12 10:35:14;;;;;;;;;;;;;;;;;;10246791;28;751;-69
2023/05/12 10:40:10;;;;;;;;;;;;;;;;;;10247102;28;1894;-69
2023/05/12 10:45:06;;;;;;;;;;;;;;;;;;10246379;28;1181;-69
2023/05/12 10:50:02;;;;;;;;;;;;;;;;;;10247492;28;800;-69
2023/05/12 10:54:58;;;;;;;;;;;;;;;;;;10245996;28;1110;-69
2023/05/12 10:59:54;;;;;;;;;;;;;;;;;;10246345;28;1922;-69
2023/05/12 11:04:50;;;;;;;;;;;;;;;;;;10246192;28;864;-72
2023/05/12 11:09:45;;;;;;;;;;;;;;;;;;10245447;28;857;-72
2023/05/12 11:14:41;;;;;;;;;;;;;;;;;;10245262;28;833;-72
2023/05/12 11:19:38;;;;;;;;;;;;;;;;;;10245103;28;794;-72
2023/05/12 11:24:34;;;;;;;;;;;;;;;;;;10244889;28;1948;-72
2023/05/12 11:29:32;;;;;;;;;;;;;;;;;;10244861;28;764;-72
2023/05/12 11:34:28;;;;;;;;;;;;;;;;;;10244711;28;1777;-72
2023/05/12 11:39:24;;;;;;;;;;;;;;;;;;10245157;28;885;-72
2023/05/12 11:44:21;;;;;;;;;;;;;;;;;;10243527;28;1906;-73
2023/05/12 11:49:17;;;;;;;;;;;;;;;;;;10244880;28;783;-72
2023/05/12 11:54:12;;;;;;;;;;;;;;;;;;10245379;28;1304;-72
2023/05/12 11:59:08;;;;;;;;;;;;;;;;;;10244948;28;758;-73
2023/05/12 12:04:05;;;;;;;;;;;;;;;;;;10244054;28;1911;-77
2023/05/12 12:09:29;;;;;;;;;;;;;;;;;;10361256;28;1137;-71
2023/05/12 12:14:24;;;;;;;;;;;20.10;56.20;;;;;;10361811;28;794;-71
2023/05/12 12:19:20;;;;;;;;;;;20.10;56.80;;;;;;10360384;28;853;-71
2023/05/12 12:24:16;;;;;;;;;;;20.10;56.70;;;;;;10361615;28;882;-72
2023/05/12 12:29:11;;;;;;;;;;;20.10;56.70;;;;;;10360471;28;1967;-71
2023/05/12 12:34:07;;;;;;;;;;;20.10;56.70;;;;;;10360355;28;796;-70
2023/05/12 12:39:03;;;;;;;;;;;20.10;56.70;;;;;;10360014;28;953;-71
2023/05/12 12:43:58;;;;;;;;;;;20.10;56.70;;;;;;10359903;28;923;-71
2023/05/12 12:48:56;;;;;;;;;;;20.10;56.70;;;;;;10360248;28;1902;-70
2023/05/12 12:53:51;;;;;;;;;;;20.10;56.70;;;;;;10359593;28;873;-71
2023/05/12 12:58:47;;;;;;;;;;;;;;;;;;10359326;28;807;-71
2023/05/12 13:03:43;;;;;;;;;;;;;;;;;;10359901;28;825;-71
2023/05/12 13:08:39;;;;;;;;;;;;;;;;;;10359507;28;1961;-71
2023/05/12 13:13:36;;;;;;;;;;;;;;;;;;10358705;28;857;-71
2023/05/12 13:18:32;;;;;;;;;;;;;;;;;;10344801;28;994;-67
2023/05/12 13:23:28;;;;;;;;;;;;;;;;;;10331068;28;881;-67
2023/05/12 13:28:24;;;;;;;;;;;;;;;;;;10330858;28;1918;-67
2023/05/12 13:33:20;;;;;;;;;;;;;;;;;;10330146;28;911;-67
2023/05/12 13:38:16;;;;;;;;;;;;;;;;;;10330720;28;1087;-67
2023/05/12 13:43:12;;;;;;;;;;;;;;;;;;10330368;28;786;-68
2023/05/12 13:48:08;;;;;;;;;;;;;;;;;;10330719;28;1959;-68
2023/05/12 13:53:04;;;;;;;;;;;;;;;;;;10329324;28;789;-68
2023/05/12 13:57:59;;;;;;;;;;;;;;;;;;10329836;28;818;-67
2023/05/12 14:02:56;;;;;;;;;;;;;;;;;;10329645;28;861;-67
2023/05/12 14:07:52;;;;;;;;;;;;;;;;;;10329516;28;1917;-68
2023/05/12 14:12:48;;;;;;;;;;;;;;;;;;10329292;28;882;-68
2023/05/12 14:17:44;;;;;;;;;;;;;;;;;;10329603;28;999;-68
2023/05/12 14:22:40;;;;;;;;;;;;;;;;;;10328843;28;932;-68
2023/05/12 14:27:36;;;;;;;;;;;;;;;;;;10328538;28;1909;-68
2023/05/12 14:32:33;;;;;;;;;;;;;;;;;;10326816;28;873;-68
2023/05/12 14:37:29;;;;;;;;;;;;;;;;;;10328926;28;844;-68
2023/05/12 14:42:28;;;;;;;;;;;;;;;;;;10328551;28;805;-69
2023/05/12 14:47:24;;;;;;;;;;;;;;;;;;10327698;28;1886;-68
2023/05/12 14:52:19;;;;;;;;;;;;;;;;;;10327249;28;983;-70
2023/05/12 14:57:15;;;;;;;;;;;;;;;;;;10328161;28;793;-66
2023/05/12 15:02:11;;;;;;;;;;;;;;;;;;10327243;28;797;-66
2023/05/12 15:07:07;;;;;;;;;;;;;;;;;;10327063;28;1994;-66
2023/05/12 15:12:03;;;;;;;;;;;;;;;;;;10326867;28;934;-66
2023/05/12 15:16:59;;;;;;;;;;;;;;;;;;10326377;28;822;-66
2023/05/12 15:21:55;;;;;;;;;;;;;;;;;;10327339;28;801;-67
2023/05/12 15:26:50;;;;;;;;;;;;;;;;;;10326893;28;1898;-66
2023/05/12 15:31:47;;;;;;;;;;;20.30;57.30;;;;;;10326250;28;936;-67
2023/05/12 15:36:44;;;;;;;;;;;20.30;57.70;;;;;;10326674;28;977;-67
2023/05/12 15:41:39;;;;;;;;;;;20.30;57.70;;;;;;10325734;28;880;-67
2023/05/12 15:46:35;;;;;;;;;;;20.30;57.50;;;;;;10325796;28;1910;-67
2023/05/12 15:51:32;;;;;;;;;;;20.30;57.50;;;;;;10325734;28;1151;-67
2023/05/12 15:56:28;;;;;;;;;;;20.30;57.50;;;;;;10326321;28;797;-74
2023/05/12 16:01:23;;;;;;;;;;;20.40;57.40;;;;;;10326243;28;808;-67
2023/05/12 16:06:18;;;;;;;;;;;20.40;57.30;;;;;;10326094;28;1913;-78
2023/05/12 16:11:16;;;;;;;;;;;20.40;57.50;;;;;;10326527;28;908;-76
2023/05/12 16:16:12;;;;;;;;;;;20.50;57.60;;;;;;10325215;28;866;-75
2023/05/12 16:21:08;;;;;;;;;;;20.40;57.60;;;;;;10325744;28;809;-75
2023/05/12 16:26:03;;;;;;;;;;;20.40;57.50;;;;;;10323702;28;1906;-75
2023/05/12 16:30:58;;;;;;;;;;;20.40;57.30;;;;;;10325789;28;936;-74
2023/05/12 16:35:54;;;;;;;;;;;;;;;;;;10324533;28;1510;-75
2023/05/12 16:40:50;;;;;;;;;;;;;;;;;;10324907;28;872;-75
2023/05/12 16:45:46;;;;;;;;;;;;;;;;;;10325167;28;1910;-75
2023/05/12 16:50:42;;;;;;;;;;;;;;;;;;10325243;28;866;-74
2023/05/12 16:55:38;;;;;;;;;;;;;;;;;;10330735;28;854;-73
2023/05/12 17:00:35;;;;;;;;;;;;;;;;;;10332536;28;878;-75
2023/05/12 17:05:30;;;;;;;;;;;;;;;;;;10332499;28;1910;-74
2023/05/12 17:10:26;;;;;;;;;;;;;;;;;;10331389;28;877;-74
2023/05/12 17:15:22;;;;;;;;;;;;;;;;;;10331946;28;856;-75
2023/05/12 17:20:18;;;;;;;;;;;;;;;;;;10331003;28;794;-75
2023/05/12 17:25:14;;;;;;;;;;;;;;;;;;10331309;28;1945;-75
2023/05/12 17:30:10;;;;;;;;;;;;;;;;;;10330755;28;883;-72
2023/05/12 17:35:06;;;;;;;;;;;;;;;;;;10330431;28;840;-71
2023/05/12 17:40:04;;;;;;;;;;;;;;;;;;10330017;28;901;-72
2023/05/12 17:44:59;;;;;;;;;;;;;;;;;;10330174;28;1959;-72
2023/05/12 17:49:55;;;;;;;;;;;;;;;;;;10329881;28;781;-72
2023/05/12 17:54:51;;;;;;;;;;;;;;;;;;10329679;28;797;-72
2023/05/12 17:59:47;;;;;;;;;;;;;;;;;;10329226;28;1033;-72
2023/05/12 18:04:43;;;;;;;;;;;;;;;;;;10330025;28;1909;-72
2023/05/12 18:09:39;;;;;;;;;;;;;;;;;;10329808;28;710;-72
2023/05/12 18:14:35;;;;;;;;;;;;;;;;;;10328862;28;961;-72
2023/05/12 18:19:31;;;;;;;;;;;;;;;;;;10328961;28;958;-71
2023/05/12 18:24:27;;;;;;;;;;;;;;;;;;10329456;28;830;-71
2023/05/12 18:29:23;;;;;;;;;;;;;;;;;;10328583;28;1882;-70
2023/05/12 18:34:19;;;;;;;;;;;;;;;;;;10328427;28;785;-71
2023/05/12 18:39:14;;;;;;;;;;;;;;;;;;10328778;28;821;-71
2023/05/12 18:44:11;;;;;;;;;;;;;;;;;;10328003;28;792;-71
2023/05/12 18:49:07;;;;;;;;;;;;;;;;;;10327669;28;1874;-71
2023/05/12 18:54:03;;;;;;;;;;;;;;;;;;10325533;28;1169;-72
2023/05/12 18:58:58;;;;;;;;;;;22.00;56.20;;;;;;10275580;28;65874;-70
2023/05/12 19:03:54;;;;;;;;;;;;;;;;;;10286216;28;777;-70
2023/05/12 19:08:50;;;;;;;;;;;20.70;55.80;;;;;;10287076;28;1922;-69
2023/05/12 19:13:48;;;;;;;;;;;20.60;56.40;;;;;;10285155;28;1466;-67
2023/05/12 19:18:43;;;;;;;;;;;20.60;56.70;;;;;;10285550;28;804;-70
2023/05/12 19:23:38;;;;;;;;;;;20.50;56.80;;;;;;10285483;28;836;-70
2023/05/12 19:28:34;;;;;;;;;;;20.60;56.80;;;;;;10284969;28;1973;-70
2023/05/12 19:33:30;;;;;;;;;;;20.60;56.80;;;;;;10285339;28;969;-70
2023/05/12 19:38:26;;;;;;;;;;;20.50;56.90;;;;;;10286216;28;945;-70
2023/05/12 19:43:21;;;;;;;;;;;20.50;56.90;;;;;;10285597;28;811;-70
2023/05/12 19:48:16;;;;;;;;;;;20.50;56.80;;;;;;10284248;28;1902;-70
2023/05/12 19:53:12;;;;;;;;;;;20.50;56.90;;;;;;10284784;28;870;-70
2023/05/12 19:58:07;;;;;;;;;;;20.50;57.00;;;;;;10284589;28;880;-70
2023/05/12 20:03:03;;;;;;;;;;;20.50;57.10;;;;;;10288395;28;9543;-69
2023/05/12 20:07:58;;;;;;;;;;;20.50;57.00;;;;;;10284617;28;1910;-68
2023/05/12 20:12:54;;;;;;;;;;;20.40;57.10;;;;;;10283991;28;1258;-68
2023/05/12 20:17:49;;;;;;;;;;;20.40;57.20;;;;;;10285231;28;867;-68
2023/05/12 20:22:44;;;;;;;;;;;20.40;57.00;;;;;;10283813;28;829;-69
2023/05/12 20:27:40;;;;;;;;;;;20.40;57.10;;;;;;10286323;28;1909;-69
2023/05/12 20:32:35;;;;;;;;;;;20.40;57.00;;;;;;10292464;28;923;-69
2023/05/12 20:37:31;;;;;;;;;;;20.30;57.00;;;;;;10292424;28;837;-68
2023/05/12 20:42:27;;;;;;;;;;;20.30;57.00;;;;;;10289066;28;1244;-68
2023/05/12 20:47:23;;;;;;;;;;;20.30;57.60;;;;;;10291955;28;1902;-69
2023/05/12 20:52:18;;;;;;;;;;;20.30;57.90;;;;;;10291283;28;761;-69
2023/05/12 20:57:16;;;;;;;;;;;20.30;57.60;;;;;;10291663;28;854;-69
2023/05/12 21:02:11;;;;;;;;;;;20.30;58.10;;;;;;10290971;28;867;-69
2023/05/12 21:07:07;;;;;;;;;;;20.30;58.10;;;;;;10291296;28;1913;-69
2023/05/12 21:12:02;;;;;;;;;;;20.30;58.10;;;;;;10290104;28;952;-69
2023/05/12 21:16:59;;;;;;;;;;;;;;;;;;10290784;28;789;-69
2023/05/12 21:21:54;;;;;;;;;;;20.30;57.50;;;;;;10290133;28;921;-69
2023/05/12 21:26:50;;;;;;;;;;;20.30;58.00;;;;;;10290333;28;1905;-68
2023/05/12 21:31:46;;;;;;;;;;;20.30;57.90;;;;;;10289565;28;895;-69
2023/05/12 21:36:41;;;;;;;;;;;20.20;57.70;;;;;;10289982;28;919;-69
2023/05/12 21:41:37;;;;;;;;;;;20.20;57.70;;;;;;10288952;28;755;-69
2023/05/12 21:46:32;;;;;;;;;;;20.20;57.70;;;;;;10289552;28;1902;-69
2023/05/12 21:51:28;;;;;;;;;;;20.20;57.70;;;;;;10289060;28;880;-69
2023/05/12 21:56:23;;;;;;;;;;;20.20;57.70;;;;;;10289968;28;804;-69
2023/05/12 22:01:18;;;;;;;;;;;20.20;57.60;;;;;;10289256;28;793;-69
2023/05/12 22:06:14;;;;;;;;;;;20.20;57.60;;;;;;10289274;28;1973;-69
2023/05/12 22:11:09;;;;;;;;;;;20.20;57.50;;;;;;10288929;28;1237;-68
2023/05/12 22:16:04;;;;;;;;;;;20.20;58.00;;;;;;10288139;28;912;-69
2023/05/12 22:21:00;;;;;;;;;;;20.20;57.40;;;;;;10288740;28;892;-68
2023/05/12 22:25:55;;;;;;;;;;;20.20;57.50;;;;;;10287879;28;1905;-69
2023/05/12 22:30:51;;;;;;;;;;;20.20;57.30;;;;;;10287863;28;793;-68
2023/05/12 22:35:46;;;;;;;;;;;20.20;57.30;;;;;;10287712;28;931;-71
2023/05/12 22:40:41;;;;;;;;;;;20.20;57.20;;;;;;10287010;28;1034;-71
2023/05/12 22:45:39;;;;;;;;;;;20.20;56.60;;;;;;10287379;28;1906;-71
2023/05/12 22:50:34;;;;;;;;;;;20.20;57.10;;;;;;10286515;28;882;-71
2023/05/12 22:55:30;;;;;;;;;;;20.20;57.20;;;;;;10286964;28;862;-71
2023/05/12 23:00:25;;;;;;;;;;;20.20;57.10;;;;;;10286742;28;848;-72
2023/05/12 23:05:21;;;;;;;;;;;20.20;57.10;;;;;;10286323;28;1906;-71
2023/05/12 23:10:16;;;;;;;;;;;20.20;57.00;;;;;;10286275;28;845;-72
2023/05/12 23:15:11;;;;;;;;;;;20.20;57.00;;;;;;10286268;28;1047;-72
2023/05/12 23:20:07;;;;;;;;;;;20.20;56.90;;;;;;10286601;28;904;-72
2023/05/12 23:25:02;;;;;;;;;;;20.20;56.80;;;;;;10285860;28;1961;-72
2023/05/12 23:29:57;;;;;;;;;;;20.20;56.80;;;;;;10285837;28;868;-72
2023/05/12 23:34:53;;;;;;;;;;;20.20;56.70;;;;;;10285572;28;933;-72
2023/05/12 23:39:48;;;;;;;;;;;20.20;56.70;;;;;;10286670;28;906;-72
2023/05/12 23:44:44;;;;;;;;;;;20.20;56.70;;;;;;10285278;28;855;-72
2023/05/12 23:49:39;;;;;;;;;;;20.20;56.70;;;;;;10285248;28;1906;-72
2023/05/12 23:54:35;;;;;;;;;;;20.20;56.70;;;;;;10285018;28;952;-72
2023/05/12 23:59:30;;;;;;;;;;;20.20;56.70;;;;;;10284805;28;885;-72
